createdAt,value
2017-11-08T00:00:43.935Z,100595.78
2017-11-08T00:01:50.527Z,100595.20
2017-11-08T00:02:56.288Z,100593.41
2017-11-08T00:04:02.042Z,100588.75
2017-11-08T00:05:07.827Z,100586.23
2017-11-08T00:06:14.339Z,100581.05
2017-11-08T00:07:20.081Z,100584.36
2017-11-08T00:08:25.847Z,100582.97
2017-11-08T00:09:31.597Z,100582.48
2017-11-08T00:10:38.149Z,100583.02
2017-11-08T00:11:43.913Z,100576.48
2017-11-08T00:12:50.419Z,100579.36
2017-11-08T00:13:56.172Z,100573.05
2017-11-08T00:15:01.926Z,100576.11
2017-11-08T00:16:08.651Z,100573.52
2017-11-08T00:17:14.397Z,100569.70
2017-11-08T00:18:20.148Z,100571.65
2017-11-08T00:19:25.890Z,100570.58
2017-11-08T00:20:31.640Z,100571.39
2017-11-08T00:21:42.829Z,100575.04
2017-11-08T00:22:50.124Z,100574.95
2017-11-08T00:23:55.875Z,100582.69
2017-11-08T00:25:02.385Z,100576.39
2017-11-08T00:26:08.127Z,100571.52
2017-11-08T00:27:13.912Z,100574.86
2017-11-08T00:28:20.424Z,100565.41
2017-11-08T00:29:26.177Z,100571.16
2017-11-08T00:30:31.932Z,100575.27
2017-11-08T00:31:38.486Z,100572.23
2017-11-08T00:32:44.089Z,100567.94
2017-11-08T00:33:49.846Z,100568.26
2017-11-08T00:34:55.603Z,100563.45
2017-11-08T00:36:01.348Z,100561.01
2017-11-08T00:37:07.104Z,100556.29
2017-11-08T00:38:12.884Z,100555.29
2017-11-08T00:39:18.648Z,100554.95
2017-11-08T00:40:24.400Z,100556.05
2017-11-08T00:41:29.936Z,100551.70
2017-11-08T00:42:35.696Z,100555.23
2017-11-08T00:43:42.244Z,100555.97
2017-11-08T00:44:47.996Z,100557.98
2017-11-08T00:45:53.769Z,100557.83
2017-11-08T00:47:00.281Z,100554.84
2017-11-08T00:48:06.038Z,100557.48
2017-11-08T00:49:11.813Z,100549.59
2017-11-08T00:50:18.336Z,100540.05
2017-11-08T00:51:24.091Z,100549.14
2017-11-08T00:52:29.837Z,100550.40
2017-11-08T00:53:38.742Z,100546.70
2017-11-08T00:54:44.518Z,100540.05
2017-11-08T00:55:51.028Z,100547.14
2017-11-08T00:56:57.588Z,100550.95
2017-11-08T00:58:03.438Z,100550.62
2017-11-08T00:59:09.200Z,100557.89
2017-11-08T01:00:16.820Z,100551.23
2017-11-08T01:01:22.577Z,100559.76
2017-11-08T01:02:28.333Z,100546.67
2017-11-08T01:03:34.072Z,100545.59
2017-11-08T01:04:40.097Z,100542.72
2017-11-08T01:05:45.893Z,100545.65
2017-11-08T01:06:51.635Z,100545.98
2017-11-08T01:07:57.379Z,100545.27
2017-11-08T01:09:03.139Z,100531.92
2017-11-08T01:10:09.668Z,100532.61
2017-11-08T01:11:16.949Z,100535.70
2017-11-08T01:12:22.965Z,100531.66
2017-11-08T01:13:28.720Z,100530.21
2017-11-08T01:14:34.472Z,100536.48
2017-11-08T01:15:40.227Z,100530.98
2017-11-08T01:16:46.584Z,100521.81
2017-11-08T01:17:52.125Z,100525.83
2017-11-08T01:18:57.883Z,100526.45
2017-11-08T01:20:04.388Z,100523.50
2017-11-08T01:21:09.955Z,100523.06
2017-11-08T01:22:15.740Z,100523.34
2017-11-08T01:23:21.497Z,100523.17
2017-11-08T01:24:27.259Z,100517.91
2017-11-08T01:25:33.001Z,100517.30
2017-11-08T01:26:38.801Z,100506.30
2017-11-08T01:27:44.644Z,100503.83
2017-11-08T01:28:50.384Z,100503.09
2017-11-08T01:29:56.139Z,100504.02
2017-11-08T01:31:01.916Z,100502.17
2017-11-08T01:32:07.333Z,100510.61
2017-11-08T01:33:13.116Z,100514.37
2017-11-08T01:34:19.705Z,100512.99
2017-11-08T01:35:25.457Z,100510.91
2017-11-08T01:36:31.205Z,100517.11
2017-11-08T01:37:41.520Z,100519.55
2017-11-08T01:38:49.020Z,100519.02
2017-11-08T01:39:55.940Z,100516.05
2017-11-08T01:41:05.263Z,100513.60
2017-11-08T01:42:10.886Z,100509.70
2017-11-08T01:43:17.750Z,100511.47
2017-11-08T01:44:26.237Z,100510.83
2017-11-08T01:45:35.396Z,100514.95
2017-11-08T01:46:42.141Z,100517.53
2017-11-08T01:47:47.906Z,100520.60
2017-11-08T01:48:53.678Z,100515.94
2017-11-08T01:50:03.769Z,100513.70
2017-11-08T01:51:14.246Z,100512.36
2017-11-08T01:52:20.036Z,100520.47
2017-11-08T01:53:25.788Z,100515.34
2017-11-08T01:54:31.536Z,100512.36
2017-11-08T01:55:39.080Z,100517.92
2017-11-08T01:56:43.933Z,100512.11
2017-11-08T01:57:48.805Z,100510.98
2017-11-08T01:58:54.976Z,100515.02
2017-11-08T02:00:00.821Z,100516.86
2017-11-08T02:01:07.370Z,100516.55
2017-11-08T02:02:13.881Z,100516.44
2017-11-08T02:03:19.448Z,100515.92
2017-11-08T02:04:25.200Z,100514.50
2017-11-08T02:05:31.738Z,100520.27
2017-11-08T02:06:37.527Z,100516.33
2017-11-08T02:07:43.292Z,100521.70
2017-11-08T02:08:49.050Z,100510.66
2017-11-08T02:09:54.805Z,100512.06
2017-11-08T02:11:00.565Z,100514.26
2017-11-08T02:12:07.149Z,100516.53
2017-11-08T02:13:12.912Z,100511.85
2017-11-08T02:14:18.669Z,100514.69
2017-11-08T02:15:24.236Z,100516.61
2017-11-08T02:16:30.040Z,100516.34
2017-11-08T02:17:41.252Z,100511.45
2017-11-08T02:18:51.044Z,100511.03
2017-11-08T02:19:57.360Z,100509.79
2017-11-08T02:21:03.536Z,100510.64
2017-11-08T02:22:09.293Z,100516.78
2017-11-08T02:23:14.735Z,100521.89
2017-11-08T02:24:20.145Z,100515.36
2017-11-08T02:25:26.190Z,100516.88
2017-11-08T02:26:36.939Z,100515.03
2017-11-08T02:27:41.749Z,100510.89
2017-11-08T02:28:47.960Z,100503.42
2017-11-08T02:29:53.716Z,100512.89
2017-11-08T02:30:59.468Z,100510.47
2017-11-08T02:32:05.299Z,100516.44
2017-11-08T02:33:10.356Z,100517.30
2017-11-08T02:34:15.444Z,100519.67
2017-11-08T02:35:20.858Z,100528.94
2017-11-08T02:36:27.446Z,100523.25
2017-11-08T02:37:33.214Z,100520.16
2017-11-08T02:38:39.732Z,100524.43
2017-11-08T02:39:45.656Z,100527.98
2017-11-08T02:40:51.411Z,100524.23
2017-11-08T02:41:57.166Z,100523.84
2017-11-08T02:43:02.905Z,100526.57
2017-11-08T02:44:08.653Z,100519.05
2017-11-08T02:45:15.942Z,100526.18
2017-11-08T02:46:26.604Z,100523.77
2017-11-08T02:47:33.130Z,100513.45
2017-11-08T02:48:38.938Z,100515.30
2017-11-08T02:49:45.447Z,100514.87
2017-11-08T02:50:51.257Z,100518.95
2017-11-08T02:51:57.021Z,100514.02
2017-11-08T02:53:02.775Z,100513.42
2017-11-08T02:54:09.010Z,100516.19
2017-11-08T02:55:14.758Z,100518.02
2017-11-08T02:56:20.539Z,100514.87
2017-11-08T02:57:27.068Z,100509.36
2017-11-08T02:58:33.581Z,100509.79
2017-11-08T02:59:41.133Z,100510.31
2017-11-08T03:00:47.659Z,100514.16
2017-11-08T03:01:53.433Z,100516.87
2017-11-08T03:03:02.366Z,100513.67
2017-11-08T03:04:08.131Z,100516.65
2017-11-08T03:05:18.569Z,100521.08
2017-11-08T03:06:24.331Z,100520.30
2017-11-08T03:07:30.120Z,100523.10
2017-11-08T03:08:36.650Z,100518.70
2017-11-08T03:09:42.401Z,100510.95
2017-11-08T03:10:48.152Z,100516.23
2017-11-08T03:11:53.918Z,100515.84
2017-11-08T03:13:00.468Z,100516.20
2017-11-08T03:14:06.233Z,100527.68
2017-11-08T03:15:11.982Z,100524.18
2017-11-08T03:16:18.291Z,100526.60
2017-11-08T03:17:24.140Z,100524.77
2017-11-08T03:18:29.993Z,100520.77
2017-11-08T03:19:35.800Z,100513.49
2017-11-08T03:20:41.544Z,100508.02
2017-11-08T03:21:47.297Z,100497.30
2017-11-08T03:22:53.057Z,100492.91
2017-11-08T03:23:59.609Z,100493.84
2017-11-08T03:25:05.168Z,100497.03
2017-11-08T03:26:11.684Z,100490.00
2017-11-08T03:27:17.435Z,100490.70
2017-11-08T03:28:23.201Z,100490.16
2017-11-08T03:29:29.741Z,100495.75
2017-11-08T03:30:35.508Z,100495.22
2017-11-08T03:31:42.045Z,100503.80
2017-11-08T03:32:47.806Z,100506.71
2017-11-08T03:33:54.324Z,100500.88
2017-11-08T03:35:00.100Z,100504.69
2017-11-08T03:36:05.942Z,100498.14
2017-11-08T03:37:11.352Z,100504.14
2017-11-08T03:38:17.125Z,100503.68
2017-11-08T03:39:23.653Z,100507.27
2017-11-08T03:40:29.437Z,100508.37
2017-11-08T03:41:35.200Z,100508.55
2017-11-08T03:42:40.961Z,100504.20
2017-11-08T03:43:46.717Z,100502.88
2017-11-08T03:44:52.466Z,100499.75
2017-11-08T03:45:58.245Z,100493.12
2017-11-08T03:47:03.998Z,100495.30
2017-11-08T03:48:09.738Z,100482.40
2017-11-08T03:49:15.481Z,100477.28
2017-11-08T03:50:21.246Z,100481.41
2017-11-08T03:51:27.020Z,100481.13
2017-11-08T03:52:32.773Z,100486.31
2017-11-08T03:53:39.301Z,100486.26
2017-11-08T03:54:45.049Z,100487.05
2017-11-08T03:55:50.795Z,100484.63
2017-11-08T03:56:56.580Z,100484.29
2017-11-08T03:58:03.096Z,100478.66
2017-11-08T03:59:08.845Z,100482.11
2017-11-08T04:00:14.604Z,100468.61
2017-11-08T04:01:21.120Z,100477.41
2017-11-08T04:02:27.356Z,100475.50
2017-11-08T04:03:33.104Z,100480.61
2017-11-08T04:04:38.852Z,100478.62
2017-11-08T04:05:44.618Z,100483.77
2017-11-08T04:06:50.371Z,100476.83
2017-11-08T04:07:56.152Z,100479.98
2017-11-08T04:09:01.917Z,100481.69
2017-11-08T04:10:07.461Z,100481.83
2017-11-08T04:11:13.220Z,100483.89
2017-11-08T04:12:18.980Z,100481.05
2017-11-08T04:13:24.583Z,100480.15
2017-11-08T04:14:30.318Z,100487.70
2017-11-08T04:15:36.080Z,100488.06
2017-11-08T04:16:41.493Z,100489.09
2017-11-08T04:17:47.052Z,100487.47
2017-11-08T04:18:52.847Z,100483.69
2017-11-08T04:19:58.417Z,100493.59
2017-11-08T04:21:04.177Z,100492.16
2017-11-08T04:22:09.921Z,100489.66
2017-11-08T04:23:15.690Z,100497.61
2017-11-08T04:24:21.876Z,100487.05
2017-11-08T04:25:27.280Z,100492.89
2017-11-08T04:26:33.808Z,100495.84
2017-11-08T04:27:39.556Z,100482.66
2017-11-08T04:28:45.319Z,100480.15
2017-11-08T04:29:51.091Z,100481.90
2017-11-08T04:30:56.843Z,100485.16
2017-11-08T04:32:02.588Z,100489.20
2017-11-08T04:33:08.345Z,100484.66
2017-11-08T04:34:14.093Z,100494.50
2017-11-08T04:35:19.882Z,100481.91
2017-11-08T04:36:25.648Z,100482.66
2017-11-08T04:37:31.396Z,100478.31
2017-11-08T04:38:37.410Z,100483.28
2017-11-08T04:39:43.165Z,100481.66
2017-11-08T04:40:48.936Z,100492.30
2017-11-08T04:41:54.685Z,100490.06
2017-11-08T04:43:00.429Z,100480.75
2017-11-08T04:44:06.172Z,100488.71
2017-11-08T04:45:11.247Z,100482.02
2017-11-08T04:46:16.599Z,100483.82
2017-11-08T04:47:22.353Z,100472.66
2017-11-08T04:48:28.113Z,100472.77
2017-11-08T04:49:33.868Z,100467.84
2017-11-08T04:50:39.628Z,100470.88
2017-11-08T04:51:46.180Z,100467.91
2017-11-08T04:52:52.701Z,100461.92
2017-11-08T04:53:58.268Z,100467.59
2017-11-08T04:55:03.848Z,100472.28
2017-11-08T04:56:09.586Z,100474.02
2017-11-08T04:57:15.180Z,100470.61
2017-11-08T04:58:20.939Z,100464.30
2017-11-08T04:59:27.455Z,100458.48
2017-11-08T05:00:33.212Z,100458.02
2017-11-08T05:01:38.978Z,100457.10
2017-11-08T05:02:45.531Z,100460.00
2017-11-08T05:03:52.041Z,100467.11
2017-11-08T05:04:57.791Z,100476.41
2017-11-08T05:06:03.542Z,100475.99
2017-11-08T05:07:09.296Z,100493.30
2017-11-08T05:08:15.089Z,100495.70
2017-11-08T05:09:20.842Z,100505.45
2017-11-08T05:10:26.586Z,100507.11
2017-11-08T05:11:32.336Z,100503.04
2017-11-08T05:12:38.098Z,100501.87
2017-11-08T05:13:43.886Z,100497.80
2017-11-08T05:14:50.393Z,100491.19
2017-11-08T05:15:56.165Z,100493.70
2017-11-08T05:17:01.913Z,100491.42
2017-11-08T05:18:07.665Z,100494.31
2017-11-08T05:19:14.210Z,100490.52
2017-11-08T05:20:19.953Z,100495.44
2017-11-08T05:21:26.474Z,100494.86
2017-11-08T05:22:32.241Z,100493.79
2017-11-08T05:23:39.515Z,100495.11
2017-11-08T05:24:46.057Z,100489.05
2017-11-08T05:25:51.801Z,100491.47
2017-11-08T05:26:57.545Z,100486.60
2017-11-08T05:28:03.382Z,100483.58
2017-11-08T05:29:09.135Z,100486.43
2017-11-08T05:30:14.906Z,100498.11
2017-11-08T05:31:21.220Z,100498.75
2017-11-08T05:32:26.974Z,100500.98
2017-11-08T05:33:33.485Z,100505.34
2017-11-08T05:34:39.234Z,100500.39
2017-11-08T05:35:45.014Z,100494.75
2017-11-08T05:36:50.776Z,100490.58
2017-11-08T05:37:57.303Z,100490.14
2017-11-08T05:39:03.057Z,100493.41
2017-11-08T05:40:08.800Z,100494.14
2017-11-08T05:41:14.577Z,100498.41
2017-11-08T05:42:21.087Z,100496.28
2017-11-08T05:43:26.845Z,100497.06
2017-11-08T05:44:32.592Z,100494.55
2017-11-08T05:45:39.845Z,100491.57
2017-11-08T05:46:45.629Z,100495.81
2017-11-08T05:47:51.964Z,100491.52
2017-11-08T05:48:59.258Z,100497.13
2017-11-08T05:50:05.776Z,100499.17
2017-11-08T05:51:11.524Z,100504.02
2017-11-08T05:52:17.325Z,100504.52
2017-11-08T05:53:22.893Z,100512.39
2017-11-08T05:54:28.644Z,100506.87
2017-11-08T05:55:34.409Z,100505.96
2017-11-08T05:56:40.161Z,100508.45
2017-11-08T05:57:46.706Z,100508.18
2017-11-08T05:58:53.960Z,100508.22
2017-11-08T05:59:59.724Z,100514.55
2017-11-08T06:01:05.468Z,100514.61
2017-11-08T06:02:11.329Z,100514.33
2017-11-08T06:03:17.881Z,100515.86
2017-11-08T06:04:24.398Z,100516.83
2017-11-08T06:05:30.149Z,100513.34
2017-11-08T06:06:35.956Z,100509.45
2017-11-08T06:07:41.713Z,100508.47
2017-11-08T06:08:47.493Z,100516.41
2017-11-08T06:09:53.240Z,100515.89
2017-11-08T06:10:58.996Z,100520.91
2017-11-08T06:12:05.521Z,100517.39
2017-11-08T06:13:11.376Z,100526.16
2017-11-08T06:14:17.156Z,100516.54
2017-11-08T06:15:22.920Z,100520.33
2017-11-08T06:16:28.698Z,100518.68
2017-11-08T06:17:34.456Z,100529.14
2017-11-08T06:18:40.981Z,100526.52
2017-11-08T06:19:46.794Z,100524.42
2017-11-08T06:20:52.535Z,100530.45
2017-11-08T06:21:58.301Z,100529.07
2017-11-08T06:23:04.063Z,100534.39
2017-11-08T06:24:09.830Z,100534.21
2017-11-08T06:25:16.384Z,100536.05
2017-11-08T06:26:21.953Z,100538.28
2017-11-08T06:27:27.976Z,100536.39
2017-11-08T06:28:34.674Z,100540.53
2017-11-08T06:29:40.760Z,100538.47
2017-11-08T06:30:46.803Z,100537.75
2017-11-08T06:31:52.936Z,100544.20
2017-11-08T06:32:58.865Z,100544.34
2017-11-08T06:34:05.062Z,100537.71
2017-11-08T06:35:11.478Z,100542.41
2017-11-08T06:36:17.300Z,100542.86
2017-11-08T06:37:23.147Z,100542.83
2017-11-08T06:38:29.774Z,100541.87
2017-11-08T06:39:35.532Z,100545.23
2017-11-08T06:40:42.059Z,100541.31
2017-11-08T06:41:48.645Z,100542.77
2017-11-08T06:42:54.405Z,100542.00
2017-11-08T06:44:00.936Z,100546.30
2017-11-08T06:45:07.457Z,100539.75
2017-11-08T06:46:13.254Z,100539.06
2017-11-08T06:47:19.872Z,100545.72
2017-11-08T06:48:25.622Z,100547.21
2017-11-08T06:49:31.381Z,100550.75
2017-11-08T06:50:38.057Z,100548.94
2017-11-08T06:51:47.613Z,100545.37
2017-11-08T06:52:53.005Z,100543.65
2017-11-08T06:53:59.528Z,100546.70
2017-11-08T06:55:05.082Z,100549.11
2017-11-08T06:56:10.834Z,100542.20
2017-11-08T06:57:22.523Z,100545.61
2017-11-08T06:58:28.347Z,100548.14
2017-11-08T06:59:34.102Z,100553.27
2017-11-08T07:00:39.859Z,100547.05
2017-11-08T07:01:45.632Z,100545.94
2017-11-08T07:02:51.388Z,100554.09
2017-11-08T07:03:56.992Z,100552.45
2017-11-08T07:05:03.515Z,100553.77
2017-11-08T07:06:09.269Z,100563.70
2017-11-08T07:07:15.020Z,100562.28
2017-11-08T07:08:20.778Z,100559.13
2017-11-08T07:09:27.313Z,100557.84
2017-11-08T07:10:33.069Z,100566.77
2017-11-08T07:11:39.649Z,100558.67
2017-11-08T07:12:46.172Z,100560.71
2017-11-08T07:13:51.928Z,100556.89
2017-11-08T07:14:57.709Z,100563.68
2017-11-08T07:16:03.462Z,100555.73
2017-11-08T07:17:10.152Z,100555.34
2017-11-08T07:18:16.331Z,100547.15
2017-11-08T07:19:22.409Z,100552.25
2017-11-08T07:20:28.255Z,100549.37
2017-11-08T07:21:33.844Z,100553.27
2017-11-08T07:22:39.600Z,100557.91
2017-11-08T07:23:46.116Z,100558.05
2017-11-08T07:24:51.881Z,100552.30
2017-11-08T07:25:57.676Z,100555.94
2017-11-08T07:27:03.423Z,100554.16
2017-11-08T07:28:09.184Z,100553.31
2017-11-08T07:29:14.940Z,100547.41
2017-11-08T07:30:21.477Z,100545.27
2017-11-08T07:31:27.269Z,100541.95
2017-11-08T07:32:33.804Z,100538.36
2017-11-08T07:33:39.346Z,100537.52
2017-11-08T07:34:45.148Z,100530.80
2017-11-08T07:35:50.894Z,100536.95
2017-11-08T07:36:56.664Z,100535.67
2017-11-08T07:38:02.421Z,100536.98
2017-11-08T07:39:08.177Z,100535.17
2017-11-08T07:40:14.236Z,100540.21
2017-11-08T07:41:20.754Z,100534.07
2017-11-08T07:42:26.337Z,100541.21
2017-11-08T07:43:32.862Z,100542.39
2017-11-08T07:44:38.631Z,100552.13
2017-11-08T07:45:45.141Z,100541.94
2017-11-08T07:46:50.924Z,100542.28
2017-11-08T07:47:57.470Z,100540.47
2017-11-08T07:49:03.208Z,100546.23
2017-11-08T07:50:08.959Z,100546.45
2017-11-08T07:51:15.489Z,100551.33
2017-11-08T07:52:21.243Z,100559.48
2017-11-08T07:53:27.050Z,100550.94
2017-11-08T07:54:34.622Z,100553.27
2017-11-08T07:55:46.376Z,100552.81
2017-11-08T07:56:56.852Z,100560.80
2017-11-08T07:58:05.340Z,100563.11
2017-11-08T07:59:11.889Z,100563.11
2017-11-08T08:00:18.668Z,100558.45
2017-11-08T08:01:23.552Z,100556.30
2017-11-08T08:02:29.312Z,100561.78
2017-11-08T08:03:34.869Z,100559.53
2017-11-08T08:04:41.424Z,100563.88
2017-11-08T08:05:47.946Z,100573.14
2017-11-08T08:06:53.700Z,100569.77
2017-11-08T08:07:59.465Z,100571.20
2017-11-08T08:09:05.044Z,100570.53
2017-11-08T08:10:10.847Z,100571.73
2017-11-08T08:11:20.468Z,100570.31
2017-11-08T08:12:26.991Z,100570.62
2017-11-08T08:13:32.749Z,100574.17
2017-11-08T08:14:38.502Z,100564.81
2017-11-08T08:15:45.805Z,100565.07
2017-11-08T08:16:52.325Z,100560.58
2017-11-08T08:17:58.092Z,100560.34
2017-11-08T08:19:03.847Z,100562.27
2017-11-08T08:20:10.356Z,100561.42
2017-11-08T08:21:16.144Z,100555.83
2017-11-08T08:22:22.651Z,100558.62
2017-11-08T08:23:28.400Z,100558.08
2017-11-08T08:24:34.169Z,100565.02
2017-11-08T08:25:39.943Z,100562.95
2017-11-08T08:26:51.073Z,100574.23
2017-11-08T08:27:56.680Z,100574.05
2017-11-08T08:29:02.427Z,100572.16
2017-11-08T08:30:08.193Z,100567.42
2017-11-08T08:31:13.956Z,100573.17
2017-11-08T08:32:20.513Z,100569.73
2017-11-08T08:33:27.033Z,100572.20
2017-11-08T08:34:32.621Z,100570.06
2017-11-08T08:35:39.128Z,100567.05
2017-11-08T08:36:44.897Z,100565.39
2017-11-08T08:37:50.690Z,100566.80
2017-11-08T08:38:56.457Z,100568.37
2017-11-08T08:40:01.870Z,100564.95
2017-11-08T08:41:07.485Z,100565.61
2017-11-08T08:42:13.272Z,100568.82
2017-11-08T08:43:19.062Z,100567.92
2017-11-08T08:44:25.582Z,100567.70
2017-11-08T08:45:31.333Z,100567.15
2017-11-08T08:46:37.085Z,100564.50
2017-11-08T08:47:42.820Z,100552.81
2017-11-08T08:48:51.622Z,100559.52
2017-11-08T08:49:57.372Z,100559.58
2017-11-08T08:51:03.121Z,100556.80
2017-11-08T08:52:08.881Z,100562.30
2017-11-08T08:53:14.653Z,100566.14
2017-11-08T08:54:20.430Z,100568.47
2017-11-08T08:55:26.224Z,100566.67
2017-11-08T08:56:31.988Z,100569.70
2017-11-08T08:57:37.541Z,100571.53
2017-11-08T08:58:43.349Z,100575.66
2017-11-08T08:59:49.136Z,100576.19
2017-11-08T09:00:54.925Z,100574.39
2017-11-08T09:02:00.684Z,100575.66
2017-11-08T09:03:06.454Z,100570.45
2017-11-08T09:04:12.212Z,100574.47
2017-11-08T09:05:18.009Z,100575.67
2017-11-08T09:06:22.884Z,100576.04
2017-11-08T09:07:28.670Z,100576.78
2017-11-08T09:08:34.425Z,100574.14
2017-11-08T09:09:40.184Z,100576.25
2017-11-08T09:10:45.972Z,100588.45
2017-11-08T09:11:51.730Z,100589.06
2017-11-08T09:12:57.483Z,100589.37
2017-11-08T09:14:03.250Z,100593.17
2017-11-08T09:15:09.013Z,100590.97
2017-11-08T09:16:14.616Z,100587.42
2017-11-08T09:17:20.380Z,100587.10
2017-11-08T09:18:26.131Z,100585.14
2017-11-08T09:19:33.664Z,100587.89
2017-11-08T09:20:39.424Z,100585.80
2017-11-08T09:21:44.692Z,100584.38
2017-11-08T09:22:51.225Z,100589.10
2017-11-08T09:23:59.995Z,100584.26
2017-11-08T09:25:05.433Z,100592.61
2017-11-08T09:26:10.650Z,100595.50
2017-11-08T09:27:16.441Z,100593.02
2017-11-08T09:28:22.220Z,100602.80
2017-11-08T09:29:29.574Z,100603.75
2017-11-08T09:30:34.787Z,100605.48
2017-11-08T09:31:40.542Z,100608.38
2017-11-08T09:32:46.321Z,100603.88
2017-11-08T09:33:52.181Z,100598.58
2017-11-08T09:35:00.560Z,100598.86
2017-11-08T09:36:07.148Z,100597.61
2017-11-08T09:37:12.896Z,100595.88
2017-11-08T09:38:18.705Z,100597.85
2017-11-08T09:39:25.053Z,100595.84
2017-11-08T09:40:31.381Z,100593.69
2017-11-08T09:41:37.143Z,100595.78
2017-11-08T09:42:42.692Z,100598.98
2017-11-08T09:43:49.250Z,100601.33
2017-11-08T09:44:55.768Z,100604.52
2017-11-08T09:46:01.544Z,100603.43
2017-11-08T09:47:08.936Z,100606.05
2017-11-08T09:48:15.476Z,100607.02
2017-11-08T09:49:21.264Z,100610.01
2017-11-08T09:50:26.434Z,100607.92
2017-11-08T09:51:32.197Z,100607.25
2017-11-08T09:52:42.499Z,100608.85
2017-11-08T09:53:48.268Z,100608.62
2017-11-08T09:54:54.070Z,100612.88
2017-11-08T09:55:59.886Z,100607.84
2017-11-08T09:57:11.797Z,100619.23
2017-11-08T09:58:17.792Z,100609.11
2017-11-08T09:59:25.388Z,100613.86
2017-11-08T10:00:31.941Z,100612.19
2017-11-08T10:01:42.806Z,100605.61
2017-11-08T10:02:48.573Z,100605.14
2017-11-08T10:03:55.099Z,100597.73
2017-11-08T10:05:00.848Z,100591.52
2017-11-08T10:06:06.762Z,100595.03
2017-11-08T10:07:12.768Z,100593.25
2017-11-08T10:08:18.532Z,100600.56
2017-11-08T10:09:30.021Z,100596.55
2017-11-08T10:10:35.812Z,100604.98
2017-11-08T10:11:47.274Z,100603.44
2017-11-08T10:12:58.480Z,100594.47
2017-11-08T10:14:04.260Z,100599.49
2017-11-08T10:15:10.023Z,100592.03
2017-11-08T10:16:19.599Z,100596.75
2017-11-08T10:17:25.389Z,100598.12
2017-11-08T10:18:31.153Z,100604.32
2017-11-08T10:19:37.482Z,100601.77
2017-11-08T10:20:43.080Z,100602.73
2017-11-08T10:21:50.639Z,100601.69
2017-11-08T10:23:00.949Z,100604.31
2017-11-08T10:24:06.721Z,100600.20
2017-11-08T10:25:13.309Z,100599.03
2017-11-08T10:26:19.558Z,100593.29
2017-11-08T10:27:26.109Z,100600.84
2017-11-08T10:28:31.910Z,100598.84
2017-11-08T10:29:37.669Z,100598.77
2017-11-08T10:30:44.201Z,100599.82
2017-11-08T10:31:49.770Z,100599.17
2017-11-08T10:32:56.294Z,100599.55
2017-11-08T10:34:02.094Z,100599.55
2017-11-08T10:35:07.853Z,100602.87
2017-11-08T10:36:12.680Z,100603.36
2017-11-08T10:37:18.444Z,100611.77
2017-11-08T10:38:24.283Z,100609.44
2017-11-08T10:39:30.270Z,100610.86
2017-11-08T10:40:36.795Z,100612.56
2017-11-08T10:41:42.553Z,100614.53
2017-11-08T10:42:48.349Z,100608.74
2017-11-08T10:43:54.110Z,100613.23
2017-11-08T10:44:59.895Z,100618.63
2017-11-08T10:46:05.313Z,100617.40
2017-11-08T10:47:11.091Z,100624.81
2017-11-08T10:48:16.857Z,100623.76
2017-11-08T10:49:22.625Z,100621.54
2017-11-08T10:50:29.184Z,100620.80
2017-11-08T10:51:35.370Z,100622.85
2017-11-08T10:52:41.271Z,100628.44
2017-11-08T10:53:52.753Z,100618.12
2017-11-08T10:54:59.165Z,100623.07
2017-11-08T10:56:04.985Z,100622.66
2017-11-08T10:57:10.741Z,100626.87
2017-11-08T10:58:23.178Z,100628.57
2017-11-08T10:59:28.250Z,100625.59
2017-11-08T11:00:33.140Z,100622.70
2017-11-08T11:01:39.389Z,100619.97
2017-11-08T11:02:45.977Z,100625.93
2017-11-08T11:03:52.329Z,100626.08
2017-11-08T11:04:58.095Z,100615.10
2017-11-08T11:06:03.517Z,100619.73
2017-11-08T11:07:09.311Z,100618.18
2017-11-08T11:08:15.087Z,100614.95
2017-11-08T11:09:23.463Z,100616.89
2017-11-08T11:10:28.883Z,100616.78
2017-11-08T11:11:33.959Z,100615.98
2017-11-08T11:12:39.740Z,100611.30
2017-11-08T11:13:48.477Z,100604.57
2017-11-08T11:14:54.326Z,100595.59
2017-11-08T11:16:00.509Z,100592.66
2017-11-08T11:17:05.578Z,100597.63
2017-11-08T11:18:11.025Z,100594.43
2017-11-08T11:19:21.512Z,100588.36
2017-11-08T11:20:28.325Z,100595.83
2017-11-08T11:21:39.922Z,100592.89
2017-11-08T11:22:45.398Z,100596.80
2017-11-08T11:23:50.517Z,100597.61
2017-11-08T11:24:56.374Z,100601.27
2017-11-08T11:26:02.156Z,100605.97
2017-11-08T11:27:13.237Z,100603.97
2017-11-08T11:28:18.317Z,100614.48
2017-11-08T11:29:23.765Z,100610.81
2017-11-08T11:30:28.840Z,100606.14
2017-11-08T11:31:34.622Z,100602.95
2017-11-08T11:32:44.235Z,100609.27
2017-11-08T11:33:49.644Z,100610.92
2017-11-08T11:34:55.505Z,100607.02
2017-11-08T11:36:00.596Z,100605.19
2017-11-08T11:37:07.198Z,100600.77
2017-11-08T11:38:12.630Z,100606.42
2017-11-08T11:39:17.702Z,100606.69
2017-11-08T11:40:22.803Z,100609.25
2017-11-08T11:41:28.025Z,100610.81
2017-11-08T11:42:33.097Z,100612.22
2017-11-08T11:43:45.450Z,100605.75
2017-11-08T11:44:50.519Z,100603.29
2017-11-08T11:45:55.698Z,100611.45
2017-11-08T11:47:01.473Z,100610.13
2017-11-08T11:48:12.209Z,100611.97
2017-11-08T11:49:17.278Z,100606.27
2017-11-08T11:50:23.033Z,100608.39
2017-11-08T11:51:33.193Z,100606.01
2017-11-08T11:52:39.721Z,100606.95
2017-11-08T11:53:45.495Z,100607.75
2017-11-08T11:54:52.011Z,100601.70
2017-11-08T11:55:57.769Z,100600.69
2017-11-08T11:57:03.222Z,100605.16
2017-11-08T11:58:09.108Z,100608.86
2017-11-08T11:59:15.973Z,100606.05
2017-11-08T12:00:21.134Z,100605.84
2017-11-08T12:01:25.947Z,100605.15
2017-11-08T12:02:30.892Z,100602.72
2017-11-08T12:03:36.026Z,100609.48
2017-11-08T12:04:41.718Z,100606.54
2017-11-08T12:05:46.622Z,100604.88
2017-11-08T12:06:51.438Z,100607.81
2017-11-08T12:07:56.294Z,100614.13
2017-11-08T12:09:01.343Z,100620.06
2017-11-08T12:10:09.396Z,100611.38
2017-11-08T12:11:14.343Z,100611.76
2017-11-08T12:12:19.424Z,100615.36
2017-11-08T12:13:24.526Z,100612.12
2017-11-08T12:14:30.714Z,100614.84
2017-11-08T12:15:35.942Z,100616.67
2017-11-08T12:16:41.369Z,100615.30
2017-11-08T12:17:46.804Z,100613.17
2017-11-08T12:19:57.305Z,100609.34
2017-11-08T12:21:02.722Z,100609.72
2017-11-08T12:22:07.791Z,100609.42
2017-11-08T12:23:13.622Z,100598.41
2017-11-08T12:24:19.249Z,100604.43
2017-11-08T12:25:24.326Z,100595.81
2017-11-08T12:26:31.422Z,100598.58
2017-11-08T12:27:36.535Z,100592.66
2017-11-08T12:28:45.737Z,100593.27
2017-11-08T12:29:50.844Z,100593.37
2017-11-08T12:30:56.610Z,100593.92
2017-11-08T12:32:02.026Z,100595.66
2017-11-08T12:33:08.211Z,100597.11
2017-11-08T12:34:13.339Z,100599.88
2017-11-08T12:35:18.778Z,100588.77
2017-11-08T12:36:24.302Z,100589.36